Time,TemperatureF,DewpointF,PressureIn,WindDirection,WindDirectionDegrees,WindSpeedMPH,WindSpeedGustMPH,Humidity,HourlyPrecipIn,Conditions,Clouds,dailyrainin,SolarRadiationWatts/m^2,SoftwareType,DateUTC
2013-07-15 00:04:00,70.8,64.0,30.02,North,360,3.5,3.5,79,0.00,,,0.00,0.0,WeatherDisplay:10.37,2013-07-14 22:04:00,
2013-07-15 00:09:00,70.8,64.0,30.02,SSW,200,3.5,3.5,79,0.00,,,0.00,0.0,WeatherDisplay:10.37,2013-07-14 22:09:00,
2013-07-15 00:14:00,70.8,64.3,30.02,SW,218,2.0,4.0,80,0.00,,,0.00,0.0,WeatherDisplay:10.37,2013-07-14 22:14:00,
2013-07-15 00:19:00,70.8,64.0,30.02,WSW,248,4.0,4.0,79,0.00,,,0.00,0.0,WeatherDisplay:10.37,2013-07-14 22:19:00,
2013-07-15 00:24:00,70.7,63.9,30.02,SSW,193,2.0,6.0,79,0.00,,,0.00,0.0,WeatherDisplay:10.37,2013-07-14 22:24:00,
2013-07-15 00:29:00,70.7,63.9,30.02,SSW,197,2.0,5.0,79,0.00,,,0.00,0.0,WeatherDisplay:10.37,2013-07-14 22:29:00,
2013-07-15 00:35:00,70.8,64.0,30.02,South,171,4.0,4.0,79,0.00,,,0.00,0.0,WeatherDisplay:10.37,2013-07-14 22:35:00,
2013-07-15 00:40:00,70.9,64.0,30.02,SSW,207,2.0,5.0,79,0.00,,,0.00,0.0,WeatherDisplay:10.37,2013-07-14 22:40:00,
2013-07-15 00:45:00,70.9,64.1,30.02,WNW,290,3.5,3.5,79,0.00,,,0.00,0.0,WeatherDisplay:10.37,2013-07-14 22:45:00,
2013-07-15 00:50:00,70.9,63.7,30.02,South,180,6.9,6.9,78,0.00,,,0.00,0.0,WeatherDisplay:10.37,2013-07-14 22:50:00,
2013-07-15 00:55:00,70.8,63.6,30.02,WSW,237,3.5,3.5,78,0.00,,,0.00,0.0,WeatherDisplay:10.37,2013-07-14 22:55:00,
2013-07-15 01:00:00,70.8,63.6,30.02,North,9,4.0,4.0,78,0.00,,,0.00,0.0,WeatherDisplay:10.37,2013-07-14 23:00:00,
2013-07-15 01:05:00,70.8,63.6,30.02,SW,227,3.5,3.5,78,0.00,,,0.00,0.0,WeatherDisplay:10.37,2013-07-14 23:05:00,
2013-07-15 01:10:00,70.8,63.6,30.02,SW,225,3.5,3.5,78,0.00,,,0.00,0.0,WeatherDisplay:10.37,2013-07-14 23:10:00,
2013-07-15 01:15:00,70.9,63.7,30.02,WSW,256,3.5,3.5,78,0.00,,,0.00,0.0,WeatherDisplay:10.37,2013-07-14 23:15:00,
2013-07-15 01:20:00,70.9,63.3,30.02,SSE,164,3.5,3.5,77,0.00,,,0.00,0.0,WeatherDisplay:10.37,2013-07-14 23:20:00,
2013-07-15 01:25:00,70.9,63.3,30.02,ENE,78,3.5,3.5,77,0.00,,,0.00,0.0,WeatherDisplay:10.37,2013-07-14 23:25:00,
2013-07-15 01:30:00,70.9,63.3,30.01,NW,318,4.0,4.0,77,0.00,,,0.00,0.0,WeatherDisplay:10.37,2013-07-14 23:30:00,
2013-07-15 01:35:00,70.8,63.2,30.01,WSW,255,4.6,4.6,77,0.00,,,0.00,0.0,WeatherDisplay:10.37,2013-07-14 23:35:00,
2013-07-15 01:40:00,70.8,63.2,30.01,WNW,299,3.5,3.5,77,0.00,,,0.00,0.0,WeatherDisplay:10.37,2013-07-14 23:40:00,
2013-07-15 01:45:00,70.8,63.2,30.01,SE,144,3.5,3.5,77,0.00,,,0.00,0.0,WeatherDisplay:10.37,2013-07-14 23:45:00,
2013-07-15 01:50:00,70.8,63.2,30.01,ENE,62,3.5,3.5,77,0.00,,,0.00,0.0,WeatherDisplay:10.37,2013-07-14 23:50:00,
2013-07-15 01:55:00,70.9,63.0,30.01,SW,229,3.5,3.5,76,0.00,,,0.00,0.0,WeatherDisplay:10.37,2013-07-14 23:55:00,
2013-07-15 02:00:00,71.0,63.1,30.01,NE,53,3.5,3.5,76,0.00,,,0.00,0.0,WeatherDisplay:10.37,2013-07-15 00:00:00,
2013-07-15 02:05:00,71.0,63.1,30.01,SW,219,4.6,4.6,76,0.00,,,0.00,0.0,WeatherDisplay:10.37,2013-07-15 00:05:00,
2013-07-15 02:10:00,71.0,62.7,30.01,West,271,3.5,3.5,75,0.00,,,0.00,0.0,WeatherDisplay:10.37,2013-07-15 00:10:00,
2013-07-15 02:15:00,71.0,62.7,30.01,NW,322,3.5,3.5,75,0.00,,,0.00,0.0,WeatherDisplay:10.37,2013-07-15 00:15:00,
2013-07-15 02:20:00,71.1,62.8,30.01,WSW,239,4.0,4.0,75,0.00,,,0.00,0.0,WeatherDisplay:10.37,2013-07-15 00:20:00,
2013-07-15 02:25:00,71.1,62.8,30.01,NNW,347,4.6,4.6,75,0.00,,,0.00,0.0,WeatherDisplay:10.37,2013-07-15 00:25:00,
2013-07-15 02:30:00,71.1,62.4,30.01,SSE,163,3.5,3.5,74,0.00,,,0.00,0.0,WeatherDisplay:10.37,2013-07-15 00:30:00,
2013-07-15 02:35:00,71.2,62.5,30.01,NNW,344,2.3,2.3,74,0.00,,,0.00,0.0,WeatherDisplay:10.37,2013-07-15 00:35:00,
2013-07-15 02:40:00,71.2,62.5,30.01,WNW,299,3.5,3.5,74,0.00,,,0.00,0.0,WeatherDisplay:10.37,2013-07-15 00:40:00,
2013-07-15 02:45:00,71.3,62.6,30.01,SSW,198,9.2,9.2,74,0.00,,,0.00,0.0,WeatherDisplay:10.37,2013-07-15 00:45:00,
2013-07-15 02:50:00,71.4,62.7,30.01,WSW,238,3.5,3.5,74,0.00,,,0.00,0.0,WeatherDisplay:10.37,2013-07-15 00:50:00,
2013-07-15 02:55:00,71.4,62.3,30.01,WNW,286,5.8,5.8,73,0.00,,,0.00,0.0,WeatherDisplay:10.37,2013-07-15 00:55:00,
2013-07-15 03:00:00,71.4,62.3,30.01,NNW,340,4.0,4.0,73,0.00,,,0.00,0.0,WeatherDisplay:10.37,2013-07-15 01:00:00,
2013-07-15 03:05:00,71.4,62.3,30.01,West,274,4.6,4.6,73,0.00,,,0.00,0.0,WeatherDisplay:10.37,2013-07-15 01:05:00,
2013-07-15 03:10:00,71.3,62.2,30.01,ESE,102,3.5,3.5,73,0.00,,,0.00,0.0,WeatherDisplay:10.37,2013-07-15 01:10:00,
2013-07-15 03:15:00,71.3,62.2,30.01,WSW,244,4.6,4.6,73,0.00,,,0.00,0.0,WeatherDisplay:10.37,2013-07-15 01:15:00,
2013-07-15 03:20:00,71.2,62.1,30.01,South,188,5.0,5.0,73,0.00,,,0.00,0.0,WeatherDisplay:10.37,2013-07-15 01:20:00,
2013-07-15 03:25:00,71.1,62.0,30.01,SSW,195,4.6,4.6,73,0.00,,,0.00,0.0,WeatherDisplay:10.37,2013-07-15 01:25:00,
2013-07-15 03:30:00,71.3,61.8,30.01,SE,138,8.1,8.1,72,0.00,,,0.00,0.0,WeatherDisplay:10.37,2013-07-15 01:30:00,
2013-07-15 03:35:00,71.5,61.6,30.01,SSW,202,5.0,5.0,71,0.00,,,0.00,0.0,WeatherDisplay:10.37,2013-07-15 01:35:00,
2013-07-15 03:40:00,71.6,61.7,30.01,NNW,331,5.8,5.8,71,0.00,,,0.00,0.0,WeatherDisplay:10.37,2013-07-15 01:40:00,
2013-07-15 03:45:00,71.6,61.7,30.01,SW,224,4.0,4.0,71,0.00,,,0.00,0.0,WeatherDisplay:10.37,2013-07-15 01:45:00,
2013-07-15 03:50:00,71.5,61.6,30.01,SW,234,4.6,4.6,71,0.00,,,0.00,0.0,WeatherDisplay:10.37,2013-07-15 01:50:00,
2013-07-15 03:55:00,71.7,61.4,30.01,SW,219,4.6,4.6,70,0.00,,,0.00,0.0,WeatherDisplay:10.37,2013-07-15 01:55:00,
2013-07-15 04:00:00,71.5,61.2,30.01,NE,40,5.8,5.8,70,0.00,,,0.00,0.0,WeatherDisplay:10.37,2013-07-15 02:00:00,
2013-07-15 04:05:00,71.6,61.3,30.01,WSW,256,5.8,5.8,70,0.00,,,0.00,0.0,WeatherDisplay:10.37,2013-07-15 02:05:00,
2013-07-15 04:10:00,71.5,61.2,30.01,WNW,291,8.1,8.1,70,0.00,,,0.00,0.0,WeatherDisplay:10.37,2013-07-15 02:10:00,
2013-07-15 04:15:00,71.5,61.2,30.01,WNW,296,3.5,3.5,70,0.00,,,0.00,0.0,WeatherDisplay:10.37,2013-07-15 02:15:00,
2013-07-15 04:20:00,71.5,61.2,30.01,NW,321,4.0,4.0,70,0.00,,,0.00,0.0,WeatherDisplay:10.37,2013-07-15 02:20:00,
2013-07-15 04:25:00,71.6,61.3,30.01,NNE,19,3.5,3.5,70,0.00,,,0.00,0.0,WeatherDisplay:10.37,2013-07-15 02:25:00,
2013-07-15 04:30:00,71.6,60.9,30.01,NE,46,6.0,6.0,69,0.00,,,0.00,0.0,WeatherDisplay:10.37,2013-07-15 02:30:00,
2013-07-15 04:35:00,71.6,60.9,30.02,NNW,344,3.5,3.5,69,0.00,,,0.00,0.0,WeatherDisplay:10.37,2013-07-15 02:35:00,
2013-07-15 04:40:00,71.5,60.8,30.02,South,191,5.8,5.8,69,0.00,,,0.00,0.0,WeatherDisplay:10.37,2013-07-15 02:40:00,
2013-07-15 04:45:00,71.5,60.8,30.02,West,279,4.0,4.0,69,0.00,,,0.00,0.0,WeatherDisplay:10.37,2013-07-15 02:45:00,
2013-07-15 04:50:00,71.5,60.8,30.02,ENE,69,9.2,9.2,69,0.00,,,0.00,0.0,WeatherDisplay:10.37,2013-07-15 02:50:00,
2013-07-15 04:55:00,71.8,60.7,30.01,NW,308,8.1,8.1,68,0.00,,,0.00,0.0,WeatherDisplay:10.37,2013-07-15 02:55:00,
2013-07-15 05:00:00,72.0,60.9,30.01,WNW,284,4.6,4.6,68,0.00,,,0.00,0.0,WeatherDisplay:10.37,2013-07-15 03:00:00,
2013-07-15 05:05:00,71.9,60.3,30.01,South,188,2.3,2.3,67,0.00,,,0.00,0.0,WeatherDisplay:10.37,2013-07-15 03:05:00,
2013-07-15 05:10:00,71.8,60.7,30.01,NE,56,3.0,3.0,68,0.00,,,0.00,0.0,WeatherDisplay:10.37,2013-07-15 03:10:00,
2013-07-15 05:15:00,71.6,60.1,30.01,SE,144,5.8,5.8,67,0.00,,,0.00,0.0,WeatherDisplay:10.37,2013-07-15 03:15:00,
2013-07-15 05:20:00,71.5,60.4,30.01,ENE,57,4.6,4.6,68,0.00,,,0.00,0.0,WeatherDisplay:10.37,2013-07-15 03:20:00,
2013-07-15 05:25:00,71.4,60.3,30.01,East,94,3.5,3.5,68,0.00,,,0.00,0.0,WeatherDisplay:10.37,2013-07-15 03:25:00,
2013-07-15 05:30:00,71.4,60.3,30.01,SW,229,3.5,3.5,68,0.00,,,0.00,0.0,WeatherDisplay:10.37,2013-07-15 03:30:00,
2013-07-15 05:35:00,71.4,59.9,30.01,SW,219,3.5,3.5,67,0.00,,,0.00,0.0,WeatherDisplay:10.37,2013-07-15 03:35:00,
2013-07-15 05:40:00,71.4,59.9,30.01,SW,219,3.5,3.5,67,0.00,,,0.00,0.0,WeatherDisplay:10.37,2013-07-15 03:40:00,
2013-07-15 05:41:00,71.4,59.9,30.01,WSW,238,3.5,3.5,67,0.00,,,0.00,0.0,WeatherDisplay:10.37,2013-07-15 03:41:00,
2013-07-15 05:46:00,71.4,59.9,30.01,SW,223,5.0,5.0,67,0.00,,,0.00,0.0,WeatherDisplay:10.37,2013-07-15 03:46:00,
2013-07-15 05:51:00,71.4,59.9,30.01,SSW,201,3.5,3.5,67,0.00,BKN,,0.00,5.0,WeatherDisplay:10.37,2013-07-15 03:51:00,
2013-07-15 05:56:00,71.3,59.8,30.01,WSW,246,3.5,3.5,67,0.00,BKN,,0.00,9.0,WeatherDisplay:10.37,2013-07-15 03:56:00,
2013-07-15 06:01:00,71.2,60.1,30.01,WSW,241,6.9,6.9,68,0.00,BKN,,0.00,12.0,WeatherDisplay:10.37,2013-07-15 04:01:00,
2013-07-15 06:06:00,71.2,59.7,30.01,SE,136,6.9,6.9,67,0.00,BKN,,0.00,19.0,WeatherDisplay:10.37,2013-07-15 04:06:00,
2013-07-15 06:11:00,71.2,59.7,30.01,WNW,291,4.0,4.0,67,0.00,BKN,,0.00,25.0,WeatherDisplay:10.37,2013-07-15 04:11:00,
2013-07-15 06:16:00,71.3,59.8,30.01,SE,133,6.9,6.9,67,0.00,SCT,,0.00,33.0,WeatherDisplay:10.37,2013-07-15 04:16:00,
2013-07-15 06:21:00,71.5,59.5,30.01,ENE,78,4.6,4.6,66,0.00,SCT,,0.00,42.0,WeatherDisplay:10.37,2013-07-15 04:21:00,
2013-07-15 06:26:00,71.8,59.8,30.01,NNW,329,3.5,3.5,66,0.00,SCT,,0.00,53.0,WeatherDisplay:10.37,2013-07-15 04:26:00,
2013-07-15 06:31:00,71.9,59.9,30.01,SW,235,4.0,4.0,66,0.00,SCT,,0.00,65.0,WeatherDisplay:10.37,2013-07-15 04:31:00,
2013-07-15 06:36:00,72.0,59.6,30.01,WNW,300,3.5,3.5,65,0.00,SCT,,0.00,77.0,WeatherDisplay:10.37,2013-07-15 04:36:00,
2013-07-15 06:41:00,72.0,59.6,30.01,ENE,70,5.8,5.8,65,0.00,SCT,,0.00,91.0,WeatherDisplay:10.37,2013-07-15 04:41:00,
2013-07-15 06:46:00,72.2,59.8,30.01,SW,219,3.5,3.5,65,0.00,FEW,,0.00,105.0,WeatherDisplay:10.37,2013-07-15 04:46:00,
2013-07-15 06:51:00,72.4,59.5,30.01,East,90,3.5,3.5,64,0.00,FEW,,0.00,118.0,WeatherDisplay:10.37,2013-07-15 04:51:00,
2013-07-15 06:56:00,72.6,59.3,30.01,ESE,115,3.5,3.5,63,0.00,FEW,,0.00,134.0,WeatherDisplay:10.37,2013-07-15 04:56:00,
2013-07-15 07:01:00,72.9,59.6,30.01,West,273,3.0,3.0,63,0.00,FEW,,0.00,149.0,WeatherDisplay:10.37,2013-07-15 05:01:00,
2013-07-15 07:06:00,73.1,59.8,30.01,East,100,3.5,3.5,63,0.00,CLR,,0.00,167.0,WeatherDisplay:10.37,2013-07-15 05:06:00,
2013-07-15 07:11:00,73.5,59.7,30.02,SSE,151,5.0,5.0,62,0.00,CLR,,0.00,185.0,WeatherDisplay:10.37,2013-07-15 05:11:00,
2013-07-15 07:16:00,73.8,60.0,30.01,NNW,348,3.5,3.5,62,0.00,CLR,,0.00,200.0,WeatherDisplay:10.37,2013-07-15 05:16:00,
2013-07-15 07:21:00,74.0,59.7,30.02,SSW,209,5.8,5.8,61,0.00,CLR,,0.00,216.0,WeatherDisplay:10.37,2013-07-15 05:21:00,
2013-07-15 07:26:00,74.2,59.4,30.02,SE,142,4.6,4.6,60,0.00,CLR,,0.00,230.0,WeatherDisplay:10.37,2013-07-15 05:26:00,
2013-07-15 07:31:00,74.5,59.7,30.02,WSW,242,3.5,3.5,60,0.00,CLR,,0.00,243.0,WeatherDisplay:10.37,2013-07-15 05:31:00,
2013-07-15 07:36:00,74.7,59.4,30.02,East,80,3.5,3.5,59,0.00,CLR,,0.00,258.0,WeatherDisplay:10.37,2013-07-15 05:36:00,
2013-07-15 07:41:00,74.9,59.1,30.01,WSW,240,4.6,4.6,58,0.00,CLR,,0.00,279.0,WeatherDisplay:10.37,2013-07-15 05:41:00,
2013-07-15 07:46:00,75.1,59.8,30.02,ENE,65,5.8,5.8,59,0.00,CLR,,0.00,288.0,WeatherDisplay:10.37,2013-07-15 05:46:00,
2013-07-15 07:51:00,75.1,59.3,30.02,SW,227,5.8,5.8,58,0.00,CLR,,0.00,302.0,WeatherDisplay:10.37,2013-07-15 05:51:00,
2013-07-15 07:56:00,75.2,58.9,30.02,SSW,202,4.6,4.6,57,0.00,CLR,,0.00,320.0,WeatherDisplay:10.37,2013-07-15 05:56:00,
2013-07-15 08:01:00,75.5,59.7,30.02,SSE,148,3.5,3.5,58,0.00,CLR,,0.00,334.0,WeatherDisplay:10.37,2013-07-15 06:01:00,
2013-07-15 08:06:00,75.6,59.8,30.02,NNW,344,3.5,3.5,58,0.00,CLR,,0.00,350.0,WeatherDisplay:10.37,2013-07-15 06:06:00,
2013-07-15 08:11:00,75.8,60.0,30.02,East,80,6.9,6.9,58,0.00,CLR,,0.00,362.0,WeatherDisplay:10.37,2013-07-15 06:11:00,
2013-07-15 08:16:00,76.0,59.7,30.02,East,82,6.0,6.0,57,0.00,CLR,,0.00,376.0,WeatherDisplay:10.37,2013-07-15 06:16:00,
2013-07-15 08:21:00,76.2,59.9,30.02,ESE,123,5.8,5.8,57,0.00,CLR,,0.00,394.0,WeatherDisplay:10.37,2013-07-15 06:21:00,
2013-07-15 08:26:00,76.4,60.0,30.02,ENE,78,5.0,5.0,57,0.00,CLR,,0.00,404.0,WeatherDisplay:10.37,2013-07-15 06:26:00,
2013-07-15 08:31:00,76.5,59.6,30.02,SE,130,6.9,6.9,56,0.00,CLR,,0.00,420.0,WeatherDisplay:10.37,2013-07-15 06:31:00,
2013-07-15 08:36:00,76.5,59.6,30.02,ESE,112,8.1,8.1,56,0.00,CLR,,0.00,436.0,WeatherDisplay:10.37,2013-07-15 06:36:00,
2013-07-15 08:41:00,76.6,59.2,30.02,East,94,8.1,8.1,55,0.00,CLR,,0.00,450.0,WeatherDisplay:10.37,2013-07-15 06:41:00,
2013-07-15 08:46:00,76.8,59.4,30.02,East,81,6.9,6.9,55,0.00,CLR,,0.00,462.0,WeatherDisplay:10.37,2013-07-15 06:46:00,
2013-07-15 08:51:00,77.1,59.7,30.02,ESE,113,8.1,8.1,55,0.00,CLR,,0.00,475.0,WeatherDisplay:10.37,2013-07-15 06:51:00,
2013-07-15 08:56:00,77.4,59.5,30.02,East,100,6.9,6.9,54,0.00,CLR,,0.00,494.0,WeatherDisplay:10.37,2013-07-15 06:56:00,
2013-07-15 09:01:00,77.3,58.8,30.02,East,88,10.4,10.4,53,0.00,CLR,,0.00,508.0,WeatherDisplay:10.37,2013-07-15 07:01:00,
2013-07-15 09:06:00,77.5,59.0,30.02,ESE,107,8.1,8.1,53,0.00,CLR,,0.00,520.0,WeatherDisplay:10.37,2013-07-15 07:06:00,
2013-07-15 09:11:00,77.5,59.0,30.02,ESE,119,8.1,8.1,53,0.00,CLR,,0.00,534.0,WeatherDisplay:10.37,2013-07-15 07:11:00,
2013-07-15 09:17:00,77.6,59.6,30.02,East,88,7.0,7.0,54,0.00,CLR,,0.00,550.0,WeatherDisplay:10.37,2013-07-15 07:17:00,
2013-07-15 09:22:00,77.9,59.4,30.02,ESE,103,6.9,6.9,53,0.00,CLR,,0.00,563.0,WeatherDisplay:10.37,2013-07-15 07:22:00,
2013-07-15 09:27:00,78.3,59.8,30.02,SSE,157,3.5,3.5,53,0.00,CLR,,0.00,575.0,WeatherDisplay:10.37,2013-07-15 07:27:00,
2013-07-15 09:32:00,78.9,59.8,30.02,SSE,150,5.8,5.8,52,0.00,CLR,,0.00,589.0,WeatherDisplay:10.37,2013-07-15 07:32:00,
2013-07-15 09:37:00,79.1,60.0,30.02,SSE,158,3.5,3.5,52,0.00,CLR,,0.00,601.0,WeatherDisplay:10.37,2013-07-15 07:37:00,
2013-07-15 09:42:00,79.3,59.6,30.02,SE,131,4.0,4.0,51,0.00,CLR,,0.00,615.0,WeatherDisplay:10.37,2013-07-15 07:42:00,
2013-07-15 09:47:00,79.6,59.9,30.02,SSE,159,4.6,4.6,51,0.00,CLR,,0.00,626.0,WeatherDisplay:10.37,2013-07-15 07:47:00,
2013-07-15 09:52:00,79.9,60.2,30.02,East,96,4.6,4.6,51,0.00,CLR,,0.00,635.0,WeatherDisplay:10.37,2013-07-15 07:52:00,
2013-07-15 09:57:00,80.1,59.8,30.02,SSE,148,5.8,5.8,50,0.00,CLR,,0.00,649.0,WeatherDisplay:10.37,2013-07-15 07:57:00,
2013-07-15 10:02:00,80.3,59.4,30.02,ESE,105,6.9,6.9,49,0.00,CLR,,0.00,663.0,WeatherDisplay:10.37,2013-07-15 08:02:00,
2013-07-15 10:07:00,80.1,58.0,30.02,SE,133,8.1,8.1,47,0.00,CLR,,0.00,670.0,WeatherDisplay:10.37,2013-07-15 08:07:00,
2013-07-15 10:12:00,80.1,58.6,30.02,West,271,6.9,6.9,48,0.00,CLR,,0.00,684.0,WeatherDisplay:10.37,2013-07-15 08:12:00,
2013-07-15 10:17:00,80.7,58.6,30.02,East,101,3.5,3.5,47,0.00,FEW,,0.00,696.0,WeatherDisplay:10.37,2013-07-15 08:17:00,
2013-07-15 10:22:00,81.5,59.3,30.02,SSE,151,3.5,3.5,47,0.00,FEW,,0.00,707.0,WeatherDisplay:10.37,2013-07-15 08:22:00,
2013-07-15 10:27:00,81.9,59.1,30.02,SE,133,4.6,4.6,46,0.00,FEW,,0.00,715.0,WeatherDisplay:10.37,2013-07-15 08:27:00,
2013-07-15 10:32:00,81.8,58.4,30.02,ESE,121,3.5,3.5,45,0.00,FEW,,0.00,722.0,WeatherDisplay:10.37,2013-07-15 08:32:00,
2013-07-15 10:37:00,82.3,58.8,30.01,East,94,2.3,2.3,45,0.00,FEW,,0.00,735.0,WeatherDisplay:10.37,2013-07-15 08:37:00,
2013-07-15 10:42:00,83.0,58.8,30.02,North,355,3.5,3.5,44,0.00,FEW,,0.00,747.0,WeatherDisplay:10.37,2013-07-15 08:42:00,
2013-07-15 10:47:00,83.3,58.5,30.02,East,88,8.0,8.0,43,0.00,FEW,,0.00,756.0,WeatherDisplay:10.37,2013-07-15 08:47:00,
2013-07-15 10:52:00,83.0,58.2,30.02,ENE,74,6.9,6.9,43,0.00,FEW,,0.00,765.0,WeatherDisplay:10.37,2013-07-15 08:52:00,
2013-07-15 10:57:00,83.1,58.3,30.02,East,96,7.0,7.0,43,0.00,FEW,,0.00,773.0,WeatherDisplay:10.37,2013-07-15 08:57:00,
2013-07-15 11:02:00,83.2,57.7,30.02,South,169,1.2,1.2,42,0.00,FEW,,0.00,779.0,WeatherDisplay:10.37,2013-07-15 09:02:00,
2013-07-15 11:07:00,83.4,57.9,30.02,ESE,107,4.6,4.6,42,0.00,FEW,,0.00,789.0,WeatherDisplay:10.37,2013-07-15 09:07:00,
2013-07-15 11:12:00,83.0,58.2,30.02,SSW,210,1.0,1.0,43,0.00,FEW,,0.00,796.0,WeatherDisplay:10.37,2013-07-15 09:12:00,
2013-07-15 11:17:00,83.4,60.4,30.02,SSW,200,1.2,1.2,46,0.00,FEW,,0.00,800.0,WeatherDisplay:10.37,2013-07-15 09:17:00,
2013-07-15 11:22:00,83.7,59.5,30.02,SSE,168,3.5,3.5,44,0.00,FEW,,0.00,805.0,WeatherDisplay:10.37,2013-07-15 09:22:00,
2013-07-15 11:27:00,82.8,59.3,30.02,SW,220,4.6,4.6,45,0.00,FEW,,0.00,814.0,WeatherDisplay:10.37,2013-07-15 09:27:00,
2013-07-15 11:32:00,82.4,59.5,30.02,WSW,248,5.0,5.0,46,0.00,FEW,,0.00,826.0,WeatherDisplay:10.37,2013-07-15 09:32:00,
2013-07-15 11:37:00,82.6,60.3,30.02,SSW,202,8.1,8.1,47,0.00,FEW,,0.00,835.0,WeatherDisplay:10.37,2013-07-15 09:37:00,
2013-07-15 11:42:00,82.2,59.4,30.02,West,260,8.1,8.1,46,0.00,FEW,,0.00,837.0,WeatherDisplay:10.37,2013-07-15 09:42:00,
2013-07-15 11:47:00,82.2,60.0,30.02,SW,231,8.1,8.1,47,0.00,FEW,,0.00,844.0,WeatherDisplay:10.37,2013-07-15 09:47:00,
2013-07-15 11:52:00,81.4,59.8,30.02,South,191,11.5,11.5,48,0.00,FEW,,0.00,847.0,WeatherDisplay:10.37,2013-07-15 09:52:00,
2013-07-15 11:57:00,81.8,60.2,30.02,NNE,30,4.6,4.6,48,0.00,FEW,,0.00,856.0,WeatherDisplay:10.37,2013-07-15 09:57:00,
2013-07-15 12:02:00,81.8,60.8,30.02,NNW,342,12.7,12.7,49,0.00,FEW,,0.00,861.0,WeatherDisplay:10.37,2013-07-15 10:02:00,
2013-07-15 12:07:00,81.4,59.8,30.02,NNE,28,9.2,9.2,48,0.00,FEW,,0.00,858.0,WeatherDisplay:10.37,2013-07-15 10:07:00,
2013-07-15 12:12:00,81.4,61.0,30.02,SW,222,8.1,8.1,50,0.00,FEW,,0.00,865.0,WeatherDisplay:10.37,2013-07-15 10:12:00,
2013-07-15 12:17:00,81.8,62.5,30.01,SSW,208,10.4,10.4,52,0.00,FEW,,0.00,868.0,WeatherDisplay:10.37,2013-07-15 10:17:00,
2013-07-15 12:22:00,81.9,63.6,30.02,WSW,257,13.0,13.0,54,0.00,FEW,,0.00,874.0,WeatherDisplay:10.37,2013-07-15 10:22:00,
2013-07-15 12:27:00,80.2,61.0,30.02,West,267,15.0,15.0,52,0.00,FEW,,0.00,877.0,WeatherDisplay:10.37,2013-07-15 10:27:00,
2013-07-15 12:32:00,80.4,62.8,30.02,WSW,248,11.5,11.5,55,0.00,FEW,,0.00,891.0,WeatherDisplay:10.37,2013-07-15 10:32:00,
2013-07-15 12:37:00,80.5,63.4,30.02,SW,214,11.5,11.5,56,0.00,FEW,,0.00,884.0,WeatherDisplay:10.37,2013-07-15 10:37:00,
2013-07-15 12:42:00,80.8,62.6,30.02,SSW,200,11.5,11.5,54,0.00,FEW,,0.00,875.0,WeatherDisplay:10.37,2013-07-15 10:42:00,
2013-07-15 12:47:00,81.6,63.3,30.02,West,265,9.0,9.0,54,0.00,FEW,,0.00,875.0,WeatherDisplay:10.37,2013-07-15 10:47:00,
2013-07-15 12:52:00,81.0,63.3,30.02,West,274,11.5,11.5,55,0.00,FEW,,0.00,884.0,WeatherDisplay:10.37,2013-07-15 10:52:00,
2013-07-15 12:57:00,80.7,62.0,30.01,WSW,249,11.5,11.5,53,0.00,FEW,,0.00,867.0,WeatherDisplay:10.37,2013-07-15 10:57:00,
2013-07-15 13:02:00,81.2,62.4,30.01,WSW,246,11.5,11.5,53,0.00,FEW,,0.00,868.0,WeatherDisplay:10.37,2013-07-15 11:02:00,
2013-07-15 13:07:00,81.1,60.1,30.01,West,269,11.5,11.5,49,0.00,FEW,,0.00,867.0,WeatherDisplay:10.37,2013-07-15 11:07:00,
2013-07-15 13:12:00,81.7,61.2,30.01,WSW,243,9.2,9.2,50,0.00,FEW,,0.00,870.0,WeatherDisplay:10.37,2013-07-15 11:12:00,
2013-07-15 13:17:00,82.0,62.1,30.01,West,263,12.0,12.0,51,0.00,FEW,,0.00,865.0,WeatherDisplay:10.37,2013-07-15 11:17:00,
2013-07-15 13:22:00,81.8,62.5,30.01,SW,230,11.5,11.5,52,0.00,FEW,,0.00,863.0,WeatherDisplay:10.37,2013-07-15 11:22:00,
2013-07-15 13:27:00,81.6,63.9,30.01,NE,37,11.5,11.5,55,0.00,FEW,,0.00,860.0,WeatherDisplay:10.37,2013-07-15 11:27:00,
2013-07-15 13:32:00,82.3,64.5,30.01,SW,235,11.5,11.5,55,0.00,FEW,,0.00,872.0,WeatherDisplay:10.37,2013-07-15 11:32:00,
2013-07-15 13:37:00,82.3,63.5,30.01,WNW,289,9.2,9.2,53,0.00,FEW,,0.00,860.0,WeatherDisplay:10.37,2013-07-15 11:37:00,
2013-07-15 13:42:00,82.7,63.3,30.01,WSW,242,11.5,11.5,52,0.00,FEW,,0.00,858.0,WeatherDisplay:10.37,2013-07-15 11:42:00,
2013-07-15 13:47:00,82.4,64.6,30.01,NE,52,10.4,10.4,55,0.00,FEW,,0.00,858.0,WeatherDisplay:10.37,2013-07-15 11:47:00,
2013-07-15 13:52:00,81.7,63.4,30.01,West,265,12.7,12.7,54,0.00,FEW,,0.00,851.0,WeatherDisplay:10.37,2013-07-15 11:52:00,
2013-07-15 13:57:00,81.4,62.6,30.01,SSW,207,11.5,11.5,53,0.00,FEW,,0.00,851.0,WeatherDisplay:10.37,2013-07-15 11:57:00,
2013-07-15 14:02:00,81.2,64.0,30.01,WNW,286,12.7,12.7,56,0.00,FEW,,0.00,842.0,WeatherDisplay:10.37,2013-07-15 12:02:00,
2013-07-15 14:07:00,81.0,63.3,30.01,West,271,12.7,12.7,55,0.00,FEW,,0.00,846.0,WeatherDisplay:10.37,2013-07-15 12:07:00,
2013-07-15 14:12:00,81.1,63.4,30.01,West,270,12.0,12.0,55,0.00,FEW,,0.00,791.0,WeatherDisplay:10.37,2013-07-15 12:12:00,
2013-07-15 14:17:00,80.7,63.0,30.01,SW,236,12.7,12.7,55,0.00,FEW,,0.00,693.0,WeatherDisplay:10.37,2013-07-15 12:17:00,
2013-07-15 14:22:00,81.0,63.8,30.01,West,268,11.5,11.5,56,0.00,FEW,,0.00,838.0,WeatherDisplay:10.37,2013-07-15 12:22:00,
2013-07-15 14:27:00,81.2,61.9,30.01,West,276,13.0,13.0,52,0.00,FEW,,0.00,831.0,WeatherDisplay:10.37,2013-07-15 12:27:00,
2013-07-15 14:32:00,81.0,61.2,30.01,West,262,13.8,13.8,51,0.00,FEW,,0.00,819.0,WeatherDisplay:10.37,2013-07-15 12:32:00,
2013-07-15 14:38:00,81.3,63.1,30.01,WSW,254,12.7,12.7,54,0.00,FEW,,0.00,791.0,WeatherDisplay:10.37,2013-07-15 12:38:00,
2013-07-15 14:43:00,81.7,64.0,30.01,West,265,12.7,12.7,55,0.00,FEW,,0.00,807.0,WeatherDisplay:10.37,2013-07-15 12:43:00,
2013-07-15 14:48:00,81.9,65.7,30.01,SW,227,12.7,12.7,58,0.00,FEW,,0.00,795.0,WeatherDisplay:10.37,2013-07-15 12:48:00,
2013-07-15 14:53:00,81.4,64.7,30.01,WSW,248,17.0,17.0,57,0.00,FEW,,0.00,800.0,WeatherDisplay:10.37,2013-07-15 12:53:00,
2013-07-15 14:58:00,81.0,64.3,30.01,SSW,209,15.0,15.0,57,0.00,FEW,,0.00,773.0,WeatherDisplay:10.37,2013-07-15 12:58:00,
2013-07-15 15:03:00,81.4,64.2,30.01,WSW,252,16.0,16.0,56,0.00,FEW,,0.00,777.0,WeatherDisplay:10.37,2013-07-15 13:03:00,
2013-07-15 15:08:00,81.1,64.4,30.01,SW,231,17.3,17.3,57,0.00,FEW,,0.00,777.0,WeatherDisplay:10.37,2013-07-15 13:08:00,
2013-07-15 15:13:00,81.5,66.3,30.01,West,261,13.0,13.0,60,0.00,FEW,,0.00,752.0,WeatherDisplay:10.37,2013-07-15 13:13:00,
2013-07-15 15:18:00,81.5,65.8,30.01,West,276,16.1,16.1,59,0.00,FEW,,0.00,731.0,WeatherDisplay:10.37,2013-07-15 13:18:00,
2013-07-15 15:23:00,82.1,66.8,30.01,WSW,246,14.0,14.0,60,0.00,FEW,,0.00,747.0,WeatherDisplay:10.37,2013-07-15 13:23:00,
2013-07-15 15:28:00,81.8,66.1,30.01,West,281,11.5,11.5,59,0.00,FEW,,0.00,735.0,WeatherDisplay:10.37,2013-07-15 13:28:00,
2013-07-15 15:33:00,81.0,64.8,30.01,WSW,252,18.4,18.4,58,0.00,FEW,,0.00,717.0,WeatherDisplay:10.37,2013-07-15 13:33:00,
2013-07-15 15:38:00,81.6,64.9,30.01,West,262,11.5,11.5,57,0.00,FEW,,0.00,703.0,WeatherDisplay:10.37,2013-07-15 13:38:00,
2013-07-15 15:43:00,81.8,64.1,30.01,West,264,16.1,16.1,55,0.00,FEW,,0.00,705.0,WeatherDisplay:10.37,2013-07-15 13:43:00,
2013-07-15 15:48:00,81.8,63.5,30.00,WSW,257,13.8,13.8,54,0.00,FEW,,0.00,703.0,WeatherDisplay:10.37,2013-07-15 13:48:00,
2013-07-15 15:53:00,82.1,63.3,30.00,West,266,13.8,13.8,53,0.00,FEW,,0.00,671.0,WeatherDisplay:10.37,2013-07-15 13:53:00,
2013-07-15 15:58:00,81.5,63.8,30.00,SSW,203,13.8,13.8,55,0.00,FEW,,0.00,650.0,WeatherDisplay:10.37,2013-07-15 13:58:00,
2013-07-15 16:03:00,81.8,64.1,30.00,West,272,13.0,13.0,55,0.00,FEW,,0.00,647.0,WeatherDisplay:10.37,2013-07-15 14:03:00,
2013-07-15 16:08:00,81.0,62.8,30.00,West,260,19.6,19.6,54,0.00,FEW,,0.00,640.0,WeatherDisplay:10.37,2013-07-15 14:08:00,
2013-07-15 16:13:00,80.8,63.6,30.00,West,267,17.0,17.0,56,0.00,FEW,,0.00,631.0,WeatherDisplay:10.37,2013-07-15 14:13:00,
2013-07-15 16:18:00,80.9,62.2,30.00,West,275,15.0,15.0,53,0.00,FEW,,0.00,621.0,WeatherDisplay:10.37,2013-07-15 14:18:00,
2013-07-15 16:23:00,81.5,62.7,30.00,West,277,11.5,11.5,53,0.00,FEW,,0.00,606.0,WeatherDisplay:10.37,2013-07-15 14:23:00,
2013-07-15 16:28:00,81.2,61.9,30.00,West,262,18.4,18.4,52,0.00,FEW,,0.00,592.0,WeatherDisplay:10.37,2013-07-15 14:28:00,
2013-07-15 16:33:00,80.7,62.0,30.00,WSW,254,17.3,17.3,53,0.00,FEW,,0.00,580.0,WeatherDisplay:10.37,2013-07-15 14:33:00,
2013-07-15 16:38:00,80.8,62.6,30.00,WSW,241,15.0,15.0,54,0.00,FEW,,0.00,570.0,WeatherDisplay:10.37,2013-07-15 14:38:00,
2013-07-15 16:43:00,81.4,63.2,30.00,SW,234,12.0,12.0,54,0.00,FEW,,0.00,570.0,WeatherDisplay:10.37,2013-07-15 14:43:00,
2013-07-15 16:48:00,81.1,62.3,30.00,WSW,239,16.1,16.1,53,0.00,FEW,,0.00,520.0,WeatherDisplay:10.37,2013-07-15 14:48:00,
2013-07-15 16:53:00,81.2,63.5,30.00,West,265,15.0,15.0,55,0.00,FEW,,0.00,527.0,WeatherDisplay:10.37,2013-07-15 14:53:00,
2013-07-15 16:58:00,81.9,64.1,30.00,West,265,19.0,19.0,55,0.00,FEW,,0.00,522.0,WeatherDisplay:10.37,2013-07-15 14:58:00,
2013-07-15 17:03:00,81.4,64.2,30.00,West,267,10.4,10.4,56,0.00,FEW,,0.00,506.0,WeatherDisplay:10.37,2013-07-15 15:03:00,
2013-07-15 17:08:00,81.9,63.6,30.00,West,266,13.8,13.8,54,0.00,FEW,,0.00,489.0,WeatherDisplay:10.37,2013-07-15 15:08:00,
2013-07-15 17:13:00,81.6,63.9,30.00,West,262,16.1,16.1,55,0.00,FEW,,0.00,473.0,WeatherDisplay:10.37,2013-07-15 15:13:00,
2013-07-15 17:18:00,81.5,64.8,29.99,West,277,11.5,11.5,57,0.00,FEW,,0.00,457.0,WeatherDisplay:10.37,2013-07-15 15:18:00,
2013-07-15 17:24:00,81.3,65.1,29.99,WNW,301,8.1,8.1,58,0.00,FEW,,0.00,446.0,WeatherDisplay:10.37,2013-07-15 15:24:00,
2013-07-15 17:29:00,81.5,64.3,30.00,WNW,287,12.7,12.7,56,0.00,FEW,,0.00,441.0,WeatherDisplay:10.37,2013-07-15 15:29:00,
2013-07-15 17:34:00,81.0,62.3,29.99,WSW,247,18.4,18.4,53,0.00,FEW,,0.00,424.0,WeatherDisplay:10.37,2013-07-15 15:34:00,
2013-07-15 17:39:00,81.2,63.5,29.99,SW,214,12.7,12.7,55,0.00,FEW,,0.00,411.0,WeatherDisplay:10.37,2013-07-15 15:39:00,
2013-07-15 17:44:00,81.4,64.2,29.99,WSW,238,10.4,10.4,56,0.00,FEW,,0.00,397.0,WeatherDisplay:10.37,2013-07-15 15:44:00,
2013-07-15 17:49:00,80.9,63.7,29.99,WSW,250,12.0,16.0,56,0.00,CLR,,0.00,378.0,WeatherDisplay:10.37,2013-07-15 15:49:00,
2013-07-15 17:54:00,80.5,64.9,29.99,SW,234,17.3,17.3,59,0.00,CLR,,0.00,362.0,WeatherDisplay:10.37,2013-07-15 15:54:00,
2013-07-15 17:59:00,80.5,64.4,29.99,WSW,250,8.0,18.0,58,0.00,CLR,,0.00,352.0,WeatherDisplay:10.37,2013-07-15 15:59:00,
2013-07-15 18:04:00,80.5,64.9,29.99,WSW,255,10.0,17.0,59,0.00,CLR,,0.00,338.0,WeatherDisplay:10.37,2013-07-15 16:04:00,
2013-07-15 18:09:00,80.8,65.1,29.99,WSW,244,15.0,15.0,59,0.00,CLR,,0.00,316.0,WeatherDisplay:10.37,2013-07-15 16:09:00,
2013-07-15 18:14:00,81.2,64.5,29.99,WSW,247,9.0,13.0,57,0.00,CLR,,0.00,304.0,WeatherDisplay:10.37,2013-07-15 16:14:00,
2013-07-15 18:19:00,80.8,64.6,29.99,West,263,10.0,17.0,58,0.00,CLR,,0.00,288.0,WeatherDisplay:10.37,2013-07-15 16:19:00,
2013-07-15 18:24:00,80.6,64.9,29.99,West,259,16.0,16.0,59,0.00,CLR,,0.00,276.0,WeatherDisplay:10.37,2013-07-15 16:24:00,
2013-07-15 18:29:00,80.6,65.4,29.99,WSW,252,6.0,16.0,60,0.00,CLR,,0.00,262.0,WeatherDisplay:10.37,2013-07-15 16:29:00,
2013-07-15 18:34:00,80.5,65.8,29.99,WSW,240,13.8,13.8,61,0.00,CLR,,0.00,246.0,WeatherDisplay:10.37,2013-07-15 16:34:00,
2013-07-15 18:39:00,80.4,66.2,29.99,WSW,256,10.0,17.0,62,0.00,FEW,,0.00,230.0,WeatherDisplay:10.37,2013-07-15 16:39:00,
2013-07-15 18:44:00,80.3,65.6,29.99,WSW,252,15.0,15.0,61,0.00,FEW,,0.00,218.0,WeatherDisplay:10.37,2013-07-15 16:44:00,
2013-07-15 18:50:00,80.3,66.1,29.99,WSW,253,12.0,12.0,62,0.00,FEW,,0.00,207.0,WeatherDisplay:10.37,2013-07-15 16:50:00,
2013-07-15 18:55:00,80.3,67.0,29.99,WSW,250,10.0,10.0,64,0.00,FEW,,0.00,192.0,WeatherDisplay:10.37,2013-07-15 16:55:00,
2013-07-15 19:00:00,80.1,66.4,29.99,West,279,13.8,13.8,63,0.00,FEW,,0.00,176.0,WeatherDisplay:10.37,2013-07-15 17:00:00,
2013-07-15 19:05:00,80.2,66.9,29.99,West,265,11.5,11.5,64,0.00,FEW,,0.00,162.0,WeatherDisplay:10.37,2013-07-15 17:05:00,
2013-07-15 19:11:00,80.2,66.5,29.99,WSW,244,12.7,12.7,63,0.00,FEW,,0.00,149.0,WeatherDisplay:10.37,2013-07-15 17:11:00,
2013-07-15 19:16:00,80.1,65.9,29.99,SW,223,12.7,12.7,62,0.00,FEW,,0.00,135.0,WeatherDisplay:10.37,2013-07-15 17:16:00,
2013-07-15 19:21:00,80.4,66.2,29.99,WSW,237,12.7,12.7,62,0.00,FEW,,0.00,123.0,WeatherDisplay:10.37,2013-07-15 17:21:00,
2013-07-15 19:26:00,80.4,65.2,29.99,WSW,241,10.4,10.4,60,0.00,FEW,,0.00,109.0,WeatherDisplay:10.37,2013-07-15 17:26:00,
2013-07-15 19:31:00,80.5,64.9,30.00,WSW,252,11.5,11.5,59,0.00,FEW,,0.00,97.0,WeatherDisplay:10.37,2013-07-15 17:31:00,
2013-07-15 19:36:00,80.6,65.4,30.00,West,271,8.1,8.1,60,0.00,FEW,,0.00,86.0,WeatherDisplay:10.37,2013-07-15 17:36:00,
2013-07-15 19:41:00,80.5,65.8,29.99,West,276,9.2,9.2,61,0.00,SCT,,0.00,74.0,WeatherDisplay:10.37,2013-07-15 17:41:00,
2013-07-15 19:46:00,80.5,65.8,29.99,NW,324,9.2,9.2,61,0.00,SCT,,0.00,62.0,WeatherDisplay:10.37,2013-07-15 17:46:00,
2013-07-15 19:52:00,80.5,65.8,30.00,WSW,257,10.4,10.4,61,0.00,SCT,,0.00,49.0,WeatherDisplay:10.37,2013-07-15 17:52:00,
2013-07-15 19:57:00,80.2,65.1,30.00,WNW,288,10.4,10.4,60,0.00,SCT,,0.00,39.0,WeatherDisplay:10.37,2013-07-15 17:57:00,
2013-07-15 20:03:00,80.1,64.5,30.00,West,278,9.2,9.2,59,0.00,SCT,,0.00,30.0,WeatherDisplay:10.37,2013-07-15 18:03:00,
2013-07-15 20:08:00,80.1,64.5,30.00,NW,311,10.4,10.4,59,0.00,BKN,,0.00,23.0,WeatherDisplay:10.37,2013-07-15 18:08:00,
2013-07-15 20:13:00,80.0,64.4,30.00,West,269,8.1,8.1,59,0.00,BKN,,0.00,16.0,WeatherDisplay:10.37,2013-07-15 18:13:00,
2013-07-15 20:18:00,79.9,64.8,30.00,WNW,299,3.5,3.5,60,0.00,BKN,,0.00,12.0,WeatherDisplay:10.37,2013-07-15 18:18:00,
2013-07-15 20:23:00,79.9,64.8,30.00,NW,309,5.8,5.8,60,0.00,SCT,,0.00,7.0,WeatherDisplay:10.37,2013-07-15 18:23:00,
2013-07-15 20:29:00,79.9,64.8,30.00,NW,309,2.3,2.3,60,0.00,SCT,,0.00,0.0,WeatherDisplay:10.37,2013-07-15 18:29:00,
2013-07-15 20:34:00,80.0,64.9,30.00,North,355,0.0,0.0,60,0.00,,,0.00,0.0,WeatherDisplay:10.37,2013-07-15 18:34:00,
2013-07-15 20:39:00,80.0,65.8,30.00,SSE,164,3.5,3.5,62,0.00,,,0.00,0.0,WeatherDisplay:10.37,2013-07-15 18:39:00,
2013-07-15 20:44:00,79.8,66.5,30.00,SSW,211,7.0,7.0,64,0.00,,,0.00,0.0,WeatherDisplay:10.37,2013-07-15 18:44:00,
2013-07-15 20:49:00,79.0,68.0,30.00,SW,225,12.7,12.7,69,0.00,,,0.00,0.0,WeatherDisplay:10.37,2013-07-15 18:49:00,
2013-07-15 20:54:00,78.7,66.8,30.00,WSW,248,3.5,3.5,67,0.00,,,0.00,0.0,WeatherDisplay:10.37,2013-07-15 18:54:00,
2013-07-15 20:59:00,78.8,66.5,30.00,WSW,256,2.3,2.3,66,0.00,,,0.00,0.0,WeatherDisplay:10.37,2013-07-15 18:59:00,
2013-07-15 21:04:00,78.8,66.5,30.01,WSW,256,0.0,0.0,66,0.00,,,0.00,0.0,WeatherDisplay:10.37,2013-07-15 19:04:00,
2013-07-15 21:09:00,78.9,66.6,30.01,East,84,2.3,2.3,66,0.00,,,0.00,0.0,WeatherDisplay:10.37,2013-07-15 19:09:00,
2013-07-15 21:14:00,79.0,67.1,30.01,East,90,0.0,1.0,67,0.00,,,0.00,0.0,WeatherDisplay:10.37,2013-07-15 19:14:00,
2013-07-15 21:19:00,78.9,67.4,30.01,SSE,160,1.0,3.0,68,0.00,,,0.00,0.0,WeatherDisplay:10.37,2013-07-15 19:19:00,
2013-07-15 21:24:00,78.6,68.0,30.01,SSW,213,4.6,4.6,70,0.00,,,0.00,0.0,WeatherDisplay:10.37,2013-07-15 19:24:00,
2013-07-15 21:30:00,78.4,67.8,30.01,South,184,1.2,1.2,70,0.00,,,0.00,0.0,WeatherDisplay:10.37,2013-07-15 19:30:00,
2013-07-15 21:35:00,78.2,67.6,30.02,WNW,296,0.0,0.1,70,0.00,,,0.00,0.0,WeatherDisplay:10.37,2013-07-15 19:35:00,
2013-07-15 21:40:00,78.2,67.6,30.02,ESE,116,1.2,1.2,70,0.00,FEW,,0.00,0.0,WeatherDisplay:10.37,2013-07-15 19:40:00,
2013-07-15 21:45:00,78.1,67.9,30.02,ESE,116,1.2,0.0,71,0.00,FEW,,0.00,0.0,WeatherDisplay:10.37,2013-07-15 19:45:00,
2013-07-15 21:50:00,77.9,67.7,30.02,ESE,117,3.5,3.5,71,0.00,FEW,,0.00,0.0,WeatherDisplay:10.37,2013-07-15 19:50:00,
2013-07-15 21:55:00,77.8,67.6,30.02,SSE,168,2.3,2.3,71,0.00,FEW,,0.00,0.0,WeatherDisplay:10.37,2013-07-15 19:55:00,
2013-07-15 22:00:00,77.6,67.4,30.02,South,184,3.5,3.5,71,0.00,FEW,,0.00,0.0,WeatherDisplay:10.37,2013-07-15 20:00:00,
2013-07-15 22:06:00,77.6,67.0,30.02,SW,220,3.5,3.5,70,0.00,FEW,,0.00,0.0,WeatherDisplay:10.37,2013-07-15 20:06:00,
2013-07-15 22:11:00,77.6,66.6,30.03,East,83,3.5,3.5,69,0.00,FEW,,0.00,0.0,WeatherDisplay:10.37,2013-07-15 20:11:00,
2013-07-15 22:16:00,77.7,66.7,30.03,NW,315,1.2,1.2,69,0.00,FEW,,0.00,0.0,WeatherDisplay:10.37,2013-07-15 20:16:00,
2013-07-15 22:21:00,77.5,66.9,30.03,WSW,238,1.2,1.2,70,0.00,FEW,,0.00,0.0,WeatherDisplay:10.37,2013-07-15 20:21:00,
2013-07-15 22:27:00,77.1,66.6,30.03,NE,39,1.2,1.2,70,0.00,FEW,,0.00,0.0,WeatherDisplay:10.37,2013-07-15 20:27:00,
2013-07-15 22:32:00,76.9,66.4,30.03,South,181,1.2,1.2,70,0.00,FEW,,0.00,0.0,WeatherDisplay:10.37,2013-07-15 20:32:00,
2013-07-15 22:37:00,76.8,66.3,30.03,NE,53,1.2,1.2,70,0.00,FEW,,0.00,0.0,WeatherDisplay:10.37,2013-07-15 20:37:00,
2013-07-15 22:42:00,76.7,66.2,30.03,ENE,57,3.5,3.5,70,0.00,FEW,,0.00,0.0,WeatherDisplay:10.37,2013-07-15 20:42:00,
2013-07-15 22:48:00,76.6,66.5,30.03,NW,317,1.2,1.2,71,0.00,FEW,,0.00,0.0,WeatherDisplay:10.37,2013-07-15 20:48:00,
2013-07-15 22:53:00,76.4,65.9,30.03,NW,321,3.5,3.5,70,0.00,FEW,,0.00,0.0,WeatherDisplay:10.37,2013-07-15 20:53:00,
2013-07-15 22:58:00,76.2,66.1,30.03,NE,46,3.5,3.5,71,0.00,FEW,,0.00,0.0,WeatherDisplay:10.37,2013-07-15 20:58:00,
2013-07-15 23:03:00,76.1,66.0,30.03,NNE,26,3.5,3.5,71,0.00,,,0.00,0.0,WeatherDisplay:10.37,2013-07-15 21:03:00,
2013-07-15 23:08:00,76.1,66.0,30.03,NE,34,3.5,3.5,71,0.00,,,0.00,0.0,WeatherDisplay:10.37,2013-07-15 21:08:00,
2013-07-15 23:14:00,76.3,65.8,30.03,North,350,4.0,4.0,70,0.00,,,0.00,0.0,WeatherDisplay:10.37,2013-07-15 21:14:00,
2013-07-15 23:19:00,76.4,65.9,30.03,NE,38,0.0,3.0,70,0.00,,,0.00,0.0,WeatherDisplay:10.37,2013-07-15 21:19:00,
2013-07-15 23:24:00,76.5,65.6,30.03,NNE,21,3.0,5.0,69,0.00,,,0.00,0.0,WeatherDisplay:10.37,2013-07-15 21:24:00,
2013-07-15 23:29:00,76.4,65.5,30.03,NE,36,4.6,4.6,69,0.00,,,0.00,0.0,WeatherDisplay:10.37,2013-07-15 21:29:00,
2013-07-15 23:34:00,76.4,65.5,30.03,NNE,17,1.0,3.0,69,0.00,,,0.00,0.0,WeatherDisplay:10.37,2013-07-15 21:34:00,
2013-07-15 23:39:00,76.5,65.6,30.03,North,356,2.0,5.0,69,0.00,,,0.00,0.0,WeatherDisplay:10.37,2013-07-15 21:39:00,
2013-07-15 23:44:00,76.3,65.4,30.03,NNE,18,3.0,6.0,69,0.00,,,0.00,0.0,WeatherDisplay:10.37,2013-07-15 21:44:00,
2013-07-15 23:49:00,75.9,65.0,30.03,NE,35,1.0,4.0,69,0.00,,,0.00,0.0,WeatherDisplay:10.37,2013-07-15 21:49:00,
2013-07-15 23:55:00,75.7,65.2,30.03,NNE,26,2.3,2.3,70,0.00,,,0.00,0.0,WeatherDisplay:10.37,2013-07-15 21:55:00,